^^
Meteo Knjazevac Station Historical Data
Daily Summary for January 23, 2022 Units:  Both    English   Metric
Daily Weekly Monthly Yearly Custom
  High: Low: Average:
Temperature: 29.7 °F /  -1.3 °C 23.7 °F /  -4.6 °C 26.8 °F /  -2.9 °C
Dew Point: 23.5 °F /  -4.7 °C 19.5 °F /  -6.9 °C 21.4 °F /  -5.9 °C
Humidity: 86% 75% 80%
Wind Speed: 13mph /  20.9km/h - 5.1mph /  8.2km/h
Wind Gust: 21mph /  33.8km/h - -
Wind- - West
Pressure: 30.33 in /  1027 hPa 30.26 in /  1024.6 hPa -
Precipitation: 0.00 in /  0 mm    
Historical Graphs
 
 
Tabular Data for January 23, 2022
Time Temperature Dew Point Pressure Wind Wind Speed Wind Gust Humidity Rainfall Rate (Hourly) solar Conditions
00:00 26 °F /  -3.3 °C 21.5 °F /  -5.8 °C 30.26in /  1024.6hPa West 3mph /  4.8km/h 9mph /  14.5km/h 83% 0.00in /  0mm 0 W/m2
00:10 26.4 °F /  -3.1 °C 21.4 °F /  -5.9 °C 30.26in /  1024.6hPa West 5mph /  8km/h 8mph /  12.9km/h 81% 0.00in /  0mm 0 W/m2
00:20 26.6 °F /  -3 °C 21.6 °F /  -5.8 °C 30.27in /  1024.9hPa West 3mph /  4.8km/h 7mph /  11.3km/h 81% 0.00in /  0mm 0 W/m2
00:30 26.6 °F /  -3 °C 21.3 °F /  -5.9 °C 30.26in /  1024.6hPa West 5mph /  8km/h 7mph /  11.3km/h 80% 0.00in /  0mm 0 W/m2
00:40 26.8 °F /  -2.9 °C 21.7 °F /  -5.7 °C 30.27in /  1024.9hPa West 6mph /  9.7km/h 8mph /  12.9km/h 81% 0.00in /  0mm 0 W/m2
00:50 26.8 °F /  -2.9 °C 21.7 °F /  -5.7 °C 30.27in /  1024.9hPa West 5mph /  8km/h 9mph /  14.5km/h 81% 0.00in /  0mm 0 W/m2
01:00 26.8 °F /  -2.9 °C 21.7 °F /  -5.7 °C 30.27in /  1024.9hPa West 5mph /  8km/h 8mph /  12.9km/h 81% 0.00in /  0mm 0 W/m2
01:10 26.8 °F /  -2.9 °C 21.7 °F /  -5.7 °C 30.27in /  1024.9hPa West 5mph /  8km/h 7mph /  11.3km/h 81% 0.00in /  0mm 0 W/m2
01:20 26.6 °F /  -3 °C 21.6 °F /  -5.8 °C 30.27in /  1024.9hPa West 7mph /  11.3km/h 9mph /  14.5km/h 81% 0.00in /  0mm 0 W/m2
01:30 26.6 °F /  -3 °C 21.6 °F /  -5.8 °C 30.26in /  1024.6hPa WNW 6mph /  9.7km/h 9mph /  14.5km/h 81% 0.00in /  0mm 0 W/m2
01:40 26.4 °F /  -3.1 °C 21.4 °F /  -5.9 °C 30.27in /  1024.9hPa West 6mph /  9.7km/h 8mph /  12.9km/h 81% 0.00in /  0mm 0 W/m2
01:50 26.1 °F /  -3.3 °C 21 °F /  -6.1 °C 30.27in /  1024.9hPa West 5mph /  8km/h 8mph /  12.9km/h 81% 0.00in /  0mm 0 W/m2
02:00 25.9 °F /  -3.4 °C 20.9 °F /  -6.2 °C 30.27in /  1024.9hPa West 3mph /  4.8km/h 7mph /  11.3km/h 81% 0.00in /  0mm 0 W/m2
02:10 25.7 °F /  -3.5 °C 20.7 °F /  -6.3 °C 30.27in /  1024.9hPa West 5mph /  8km/h 6mph /  9.7km/h 81% 0.00in /  0mm 0 W/m2
02:20 25.5 °F /  -3.6 °C 20.5 °F /  -6.4 °C 30.27in /  1024.9hPa West 3mph /  4.8km/h 7mph /  11.3km/h 81% 0.00in /  0mm 0 W/m2
02:30 25.5 °F /  -3.6 °C 20.5 °F /  -6.4 °C 30.27in /  1024.9hPa West 6mph /  9.7km/h 10mph /  16.1km/h 81% 0.00in /  0mm 0 W/m2
02:40 25.6 °F /  -3.6 °C 20.6 °F /  -6.3 °C 30.27in /  1024.9hPa WNW 5mph /  8km/h 10mph /  16.1km/h 81% 0.00in /  0mm 0 W/m2
02:50 25.5 °F /  -3.6 °C 20.5 °F /  -6.4 °C 30.27in /  1024.9hPa West 6mph /  9.7km/h 9mph /  14.5km/h 81% 0.00in /  0mm 0 W/m2
03:00 25.5 °F /  -3.6 °C 20.5 °F /  -6.4 °C 30.27in /  1024.9hPa West 5mph /  8km/h 9mph /  14.5km/h 81% 0.00in /  0mm 0 W/m2
03:10 25.3 °F /  -3.7 °C 20.3 °F /  -6.5 °C 30.27in /  1024.9hPa West 5mph /  8km/h 7mph /  11.3km/h 81% 0.00in /  0mm 0 W/m2
03:20 25.5 °F /  -3.6 °C 20.5 °F /  -6.4 °C 30.27in /  1024.9hPa WNW 5mph /  8km/h 10mph /  16.1km/h 81% 0.00in /  0mm 0 W/m2
03:30 25.5 °F /  -3.6 °C 20.5 °F /  -6.4 °C 30.27in /  1024.9hPa WNW 5mph /  8km/h 9mph /  14.5km/h 81% 0.00in /  0mm 0 W/m2
03:40 25.4 °F /  -3.7 °C 20.4 °F /  -6.4 °C 30.27in /  1024.9hPa West 5mph /  8km/h 8mph /  12.9km/h 81% 0.00in /  0mm 0 W/m2
03:50 25.2 °F /  -3.8 °C 20.1 °F /  -6.6 °C 30.27in /  1024.9hPa West 3mph /  4.8km/h 7mph /  11.3km/h 81% 0.00in /  0mm 0 W/m2
04:00 25.2 °F /  -3.8 °C 20.7 °F /  -6.3 °C 30.28in /  1025.3hPa WNW 5mph /  8km/h 7mph /  11.3km/h 83% 0.00in /  0mm 0 W/m2
04:10 25.2 °F /  -3.8 °C 20.7 °F /  -6.3 °C 30.28in /  1025.3hPa WNW 1mph /  1.6km/h 8mph /  12.9km/h 83% 0.00in /  0mm 0 W/m2
04:20 25.3 °F /  -3.7 °C 21.2 °F /  -6 °C 30.28in /  1025.3hPa WNW 5mph /  8km/h 7mph /  11.3km/h 84% 0.00in /  0mm 0 W/m2
04:30 25.3 °F /  -3.7 °C 20.8 °F /  -6.2 °C 30.28in /  1025.3hPa West 1mph /  1.6km/h 6mph /  9.7km/h 83% 0.00in /  0mm 0 W/m2
04:40 24.8 °F /  -4 °C 20.4 °F /  -6.4 °C 30.28in /  1025.3hPa SSW 1mph /  1.6km/h 6mph /  9.7km/h 83% 0.00in /  0mm 0 W/m2
04:50 23.9 °F /  -4.5 °C 19.5 °F /  -6.9 °C 30.28in /  1025.3hPa South 1mph /  1.6km/h 5mph /  8km/h 83% 0.00in /  0mm 0 W/m2
05:00 23.7 °F /  -4.6 °C 19.9 °F /  -6.7 °C 30.28in /  1025.3hPa NW 2mph /  3.2km/h 6mph /  9.7km/h 85% 0.00in /  0mm 0 W/m2
05:10 24.3 °F /  -4.3 °C 20.5 °F /  -6.4 °C 30.28in /  1025.3hPa WNW 3mph /  4.8km/h 8mph /  12.9km/h 85% 0.00in /  0mm 0 W/m2
05:20 24.7 °F /  -4.1 °C 20.8 °F /  -6.2 °C 30.28in /  1025.3hPa West 2mph /  3.2km/h 8mph /  12.9km/h 85% 0.00in /  0mm 0 W/m2
05:30 25.1 °F /  -3.8 °C 20.9 °F /  -6.2 °C 30.28in /  1025.3hPa WSW 3mph /  4.8km/h 12mph /  19.3km/h 84% 0.00in /  0mm 0 W/m2
05:40 25.2 °F /  -3.8 °C 21 °F /  -6.1 °C 30.28in /  1025.3hPa WSW 3mph /  4.8km/h 8mph /  12.9km/h 84% 0.00in /  0mm 0 W/m2
05:50 24.9 °F /  -3.9 °C 20.7 °F /  -6.3 °C 30.29in /  1025.6hPa WSW 5mph /  8km/h 7mph /  11.3km/h 84% 0.00in /  0mm 0 W/m2
06:00 24.6 °F /  -4.1 °C 20.2 °F /  -6.6 °C 30.29in /  1025.6hPa WSW 5mph /  8km/h 8mph /  12.9km/h 83% 0.00in /  0mm 0 W/m2
06:10 24.4 °F /  -4.2 °C 20.3 °F /  -6.5 °C 30.29in /  1025.6hPa WSW 5mph /  8km/h 9mph /  14.5km/h 84% 0.00in /  0mm 0 W/m2
06:20 24.8 °F /  -4 °C 20.4 °F /  -6.4 °C 30.29in /  1025.6hPa WSW 7mph /  11.3km/h 12mph /  19.3km/h 83% 0.00in /  0mm 0 W/m2
06:30 24.6 °F /  -4.1 °C 20.2 °F /  -6.6 °C 30.29in /  1025.6hPa WSW 7mph /  11.3km/h 12mph /  19.3km/h 83% 0.00in /  0mm 0 W/m2
06:40 24.6 °F /  -4.1 °C 20.2 °F /  -6.6 °C 30.29in /  1025.6hPa West 6mph /  9.7km/h 12mph /  19.3km/h 83% 0.00in /  0mm 0 W/m2
06:50 24.6 °F /  -4.1 °C 20.2 °F /  -6.6 °C 30.30in /  1026hPa WSW 6mph /  9.7km/h 12mph /  19.3km/h 83% 0.00in /  0mm 0 W/m2
07:00 24.4 °F /  -4.2 °C 20 °F /  -6.7 °C 30.30in /  1026hPa West 6mph /  9.7km/h 12mph /  19.3km/h 83% 0.00in /  0mm 4 W/m2
07:10 24.4 °F /  -4.2 °C 20 °F /  -6.7 °C 30.30in /  1026hPa West 6mph /  9.7km/h 12mph /  19.3km/h 83% 0.00in /  0mm 4 W/m2
07:20 24.4 °F /  -4.2 °C 20 °F /  -6.7 °C 30.31in /  1026.3hPa West 7mph /  11.3km/h 11mph /  17.7km/h 83% 0.00in /  0mm 18 W/m2
07:30 24.6 °F /  -4.1 °C 20.2 °F /  -6.6 °C 30.31in /  1026.3hPa West 7mph /  11.3km/h 12mph /  19.3km/h 83% 0.00in /  0mm 21 W/m2
07:40 24.8 °F /  -4 °C 20.4 °F /  -6.4 °C 30.31in /  1026.3hPa West 6mph /  9.7km/h 11mph /  17.7km/h 83% 0.00in /  0mm 24 W/m2
07:50 24.8 °F /  -4 °C 20.4 °F /  -6.4 °C 30.31in /  1026.3hPa West 6mph /  9.7km/h 10mph /  16.1km/h 83% 0.00in /  0mm 29 W/m2
08:00 25.1 °F /  -3.8 °C 20.4 °F /  -6.4 °C 30.31in /  1026.3hPa West 7mph /  11.3km/h 10mph /  16.1km/h 82% 0.00in /  0mm 38 W/m2
08:10 25.3 °F /  -3.7 °C 20.3 °F /  -6.5 °C 30.31in /  1026.3hPa WSW 7mph /  11.3km/h 13mph /  20.9km/h 81% 0.00in /  0mm 37 W/m2
08:20 25.5 °F /  -3.6 °C 20.5 °F /  -6.4 °C 30.31in /  1026.3hPa WSW 6mph /  9.7km/h 10mph /  16.1km/h 81% 0.00in /  0mm 45 W/m2
08:30 25.7 °F /  -3.5 °C 20.7 °F /  -6.3 °C 30.31in /  1026.3hPa WSW 6mph /  9.7km/h 10mph /  16.1km/h 81% 0.00in /  0mm 49 W/m2
08:40 25.9 °F /  -3.4 °C 20.9 °F /  -6.2 °C 30.31in /  1026.3hPa West 5mph /  8km/h 10mph /  16.1km/h 81% 0.00in /  0mm 52 W/m2
08:50 26.1 °F /  -3.3 °C 21 °F /  -6.1 °C 30.31in /  1026.3hPa West 6mph /  9.7km/h 10mph /  16.1km/h 81% 0.00in /  0mm 57 W/m2
09:00 26.2 °F /  -3.2 °C 20.9 °F /  -6.2 °C 30.31in /  1026.3hPa West 6mph /  9.7km/h 12mph /  19.3km/h 80% 0.00in /  0mm 55 W/m2
09:10 26.4 °F /  -3.1 °C 21.1 °F /  -6.1 °C 30.31in /  1026.3hPa West 5mph /  8km/h 10mph /  16.1km/h 80% 0.00in /  0mm 70 W/m2
09:20 26.6 °F /  -3 °C 21.3 °F /  -5.9 °C 30.32in /  1026.6hPa WSW 5mph /  8km/h 9mph /  14.5km/h 80% 0.00in /  0mm 68 W/m2
09:30 26.8 °F /  -2.9 °C 21.4 °F /  -5.9 °C 30.31in /  1026.3hPa West 5mph /  8km/h 9mph /  14.5km/h 80% 0.00in /  0mm 80 W/m2
09:40 27 °F /  -2.8 °C 21.3 °F /  -5.9 °C 30.32in /  1026.6hPa West 6mph /  9.7km/h 13mph /  20.9km/h 79% 0.00in /  0mm 78 W/m2
09:50 27.1 °F /  -2.7 °C 21.5 °F /  -5.8 °C 30.32in /  1026.6hPa West 7mph /  11.3km/h 10mph /  16.1km/h 79% 0.00in /  0mm 85 W/m2
10:00 27.3 °F /  -2.6 °C 21.7 °F /  -5.7 °C 30.32in /  1026.6hPa West 5mph /  8km/h 9mph /  14.5km/h 79% 0.00in /  0mm 89 W/m2
10:10 27.5 °F /  -2.5 °C 21.8 °F /  -5.7 °C 30.32in /  1026.6hPa West 7mph /  11.3km/h 12mph /  19.3km/h 79% 0.00in /  0mm 102 W/m2
10:20 27.5 °F /  -2.5 °C 21.8 °F /  -5.7 °C 30.32in /  1026.6hPa West 5mph /  8km/h 11mph /  17.7km/h 79% 0.00in /  0mm 102 W/m2
10:30 27.5 °F /  -2.5 °C 21.8 °F /  -5.7 °C 30.32in /  1026.6hPa West 5mph /  8km/h 12mph /  19.3km/h 79% 0.00in /  0mm 102 W/m2
10:40 27.7 °F /  -2.4 °C 22 °F /  -5.6 °C 30.32in /  1026.6hPa West 7mph /  11.3km/h 13mph /  20.9km/h 79% 0.00in /  0mm 111 W/m2
10:50 27.7 °F /  -2.4 °C 22 °F /  -5.6 °C 30.31in /  1026.3hPa West 7mph /  11.3km/h 13mph /  20.9km/h 79% 0.00in /  0mm 125 W/m2
11:00 27.9 °F /  -2.3 °C 22.2 °F /  -5.4 °C 30.31in /  1026.3hPa West 7mph /  11.3km/h 13mph /  20.9km/h 79% 0.00in /  0mm 172 W/m2
11:10 28 °F /  -2.2 °C 22.4 °F /  -5.3 °C 30.31in /  1026.3hPa West 9mph /  14.5km/h 14mph /  22.5km/h 79% 0.00in /  0mm 232 W/m2
11:20 28.4 °F /  -2 °C 22.7 °F /  -5.2 °C 30.30in /  1026hPa West 7mph /  11.3km/h 14mph /  22.5km/h 79% 0.00in /  0mm 243 W/m2
11:30 28.7 °F /  -1.8 °C 23 °F /  -5 °C 30.30in /  1026hPa West 6mph /  9.7km/h 13mph /  20.9km/h 79% 0.00in /  0mm 248 W/m2
11:40 29.1 °F /  -1.6 °C 23.1 °F /  -4.9 °C 30.30in /  1026hPa WSW 6mph /  9.7km/h 12mph /  19.3km/h 78% 0.00in /  0mm 280 W/m2
11:50 29.5 °F /  -1.4 °C 23.5 °F /  -4.7 °C 30.30in /  1026hPa WSW 9mph /  14.5km/h 15mph /  24.1km/h 78% 0.00in /  0mm 275 W/m2
12:00 29.5 °F /  -1.4 °C 23.2 °F /  -4.9 °C 30.29in /  1025.6hPa WSW 9mph /  14.5km/h 15mph /  24.1km/h 77% 0.00in /  0mm 255 W/m2
12:10 29.6 °F /  -1.3 °C 23.3 °F /  -4.8 °C 30.29in /  1025.6hPa WSW 12mph /  19.3km/h 18mph /  29km/h 77% 0.00in /  0mm 203 W/m2
12:20 29.7 °F /  -1.3 °C 22.7 °F /  -5.2 °C 30.28in /  1025.3hPa WSW 13mph /  20.9km/h 18mph /  29km/h 75% 0.00in /  0mm 155 W/m2
12:30 29.3 °F /  -1.5 °C 22.4 °F /  -5.3 °C 30.28in /  1025.3hPa WSW 12mph /  19.3km/h 20mph /  32.2km/h 75% 0.00in /  0mm 115 W/m2
12:40 29.1 °F /  -1.6 °C 22.2 °F /  -5.4 °C 30.28in /  1025.3hPa WSW 12mph /  19.3km/h 20mph /  32.2km/h 75% 0.00in /  0mm 99 W/m2
12:50 28.8 °F /  -1.8 °C 21.9 °F /  -5.6 °C 30.28in /  1025.3hPa West 10mph /  16.1km/h 20mph /  32.2km/h 75% 0.00in /  0mm 116 W/m2
13:00 28.8 °F /  -1.8 °C 22.5 °F /  -5.3 °C 30.28in /  1025.3hPa West 8mph /  12.9km/h 21mph /  33.8km/h 77% 0.00in /  0mm 122 W/m2
13:10 28.8 °F /  -1.8 °C 21.8 °F /  -5.7 °C 30.29in /  1025.6hPa West 13mph /  20.9km/h 20mph /  32.2km/h 75% 0.00in /  0mm 111 W/m2
13:20 28.6 °F /  -1.9 °C 21.7 °F /  -5.7 °C 30.28in /  1025.3hPa WSW 12mph /  19.3km/h 18mph /  29km/h 75% 0.00in /  0mm 97 W/m2
13:30 28.6 °F /  -1.9 °C 22.3 °F /  -5.4 °C 30.28in /  1025.3hPa WSW 12mph /  19.3km/h 20mph /  32.2km/h 77% 0.00in /  0mm 97 W/m2
13:40 28.6 °F /  -1.9 °C 22.3 °F /  -5.4 °C 30.28in /  1025.3hPa WSW 9mph /  14.5km/h 15mph /  24.1km/h 77% 0.00in /  0mm 86 W/m2
13:50 28.6 °F /  -1.9 °C 22.3 °F /  -5.4 °C 30.28in /  1025.3hPa WSW 6mph /  9.7km/h 16mph /  25.7km/h 77% 0.00in /  0mm 76 W/m2
14:00 28.6 °F /  -1.9 °C 22 °F /  -5.6 °C 30.29in /  1025.6hPa West 5mph /  8km/h 8mph /  12.9km/h 76% 0.00in /  0mm 64 W/m2
14:10 28.8 °F /  -1.8 °C 21.8 °F /  -5.7 °C 30.28in /  1025.3hPa West 3mph /  4.8km/h 8mph /  12.9km/h 75% 0.00in /  0mm 71 W/m2
14:20 28.9 °F /  -1.7 °C 22 °F /  -5.6 °C 30.28in /  1025.3hPa West 5mph /  8km/h 9mph /  14.5km/h 75% 0.00in /  0mm 77 W/m2
14:30 28.8 °F /  -1.8 °C 21.8 °F /  -5.7 °C 30.29in /  1025.6hPa West 10mph /  16.1km/h 14mph /  22.5km/h 75% 0.00in /  0mm 65 W/m2
14:40 28.6 °F /  -1.9 °C 21.7 °F /  -5.7 °C 30.29in /  1025.6hPa West 9mph /  14.5km/h 17mph /  27.4km/h 75% 0.00in /  0mm 61 W/m2
14:50 28.5 °F /  -1.9 °C 21.6 °F /  -5.8 °C 30.28in /  1025.3hPa West 7mph /  11.3km/h 14mph /  22.5km/h 75% 0.00in /  0mm 50 W/m2
15:00 28.6 °F /  -1.9 °C 22.3 °F /  -5.4 °C 30.29in /  1025.6hPa West 7mph /  11.3km/h 13mph /  20.9km/h 77% 0.00in /  0mm 48 W/m2
15:10 28.4 °F /  -2 °C 22.1 °F /  -5.5 °C 30.29in /  1025.6hPa West 7mph /  11.3km/h 13mph /  20.9km/h 77% 0.00in /  0mm 71 W/m2
15:20 28.4 °F /  -2 °C 22.1 °F /  -5.5 °C 30.29in /  1025.6hPa West 7mph /  11.3km/h 12mph /  19.3km/h 77% 0.00in /  0mm 65 W/m2
15:30 28.5 °F /  -1.9 °C 22.2 °F /  -5.4 °C 30.29in /  1025.6hPa West 6mph /  9.7km/h 11mph /  17.7km/h 77% 0.00in /  0mm 48 W/m2
15:40 28.6 °F /  -1.9 °C 22.3 °F /  -5.4 °C 30.29in /  1025.6hPa West 5mph /  8km/h 9mph /  14.5km/h 77% 0.00in /  0mm 28 W/m2
15:50 28.4 °F /  -2 °C 22.1 °F /  -5.5 °C 30.29in /  1025.6hPa West 5mph /  8km/h 10mph /  16.1km/h 77% 0.00in /  0mm 20 W/m2
16:00 28.4 °F /  -2 °C 22.1 °F /  -5.5 °C 30.29in /  1025.6hPa West 3mph /  4.8km/h 12mph /  19.3km/h 77% 0.00in /  0mm 15 W/m2
16:10 28.2 °F /  -2.1 °C 21.9 °F /  -5.6 °C 30.29in /  1025.6hPa West 3mph /  4.8km/h 12mph /  19.3km/h 77% 0.00in /  0mm 5 W/m2
16:20 28.1 °F /  -2.2 °C 21.8 °F /  -5.7 °C 30.29in /  1025.6hPa West 6mph /  9.7km/h 10mph /  16.1km/h 77% 0.00in /  0mm 5 W/m2
16:30 28 °F /  -2.2 °C 21.7 °F /  -5.7 °C 30.29in /  1025.6hPa WSW 3mph /  4.8km/h 9mph /  14.5km/h 77% 0.00in /  0mm 0 W/m2
16:40 27.9 °F /  -2.3 °C 21.9 °F /  -5.6 °C 30.29in /  1025.6hPa WSW 5mph /  8km/h 12mph /  19.3km/h 78% 0.00in /  0mm 0 W/m2
16:50 27.7 °F /  -2.4 °C 21.4 °F /  -5.9 °C 30.30in /  1026hPa WSW 7mph /  11.3km/h 12mph /  19.3km/h 77% 0.00in /  0mm 0 W/m2
17:00 27.7 °F /  -2.4 °C 21.4 °F /  -5.9 °C 30.30in /  1026hPa WSW 6mph /  9.7km/h 10mph /  16.1km/h 77% 0.00in /  0mm 0 W/m2
17:10 27.5 °F /  -2.5 °C 21.5 °F /  -5.8 °C 30.30in /  1026hPa WSW 6mph /  9.7km/h 9mph /  14.5km/h 78% 0.00in /  0mm 0 W/m2
17:20 27.3 °F /  -2.6 °C 21.4 °F /  -5.9 °C 30.30in /  1026hPa WSW 6mph /  9.7km/h 9mph /  14.5km/h 78% 0.00in /  0mm 0 W/m2
17:30 27.3 °F /  -2.6 °C 21.4 °F /  -5.9 °C 30.29in /  1025.6hPa WSW 6mph /  9.7km/h 8mph /  12.9km/h 78% 0.00in /  0mm 0 W/m2
17:40 27.1 °F /  -2.7 °C 21.2 °F /  -6 °C 30.29in /  1025.6hPa WSW 6mph /  9.7km/h 10mph /  16.1km/h 78% 0.00in /  0mm 0 W/m2
17:50 27 °F /  -2.8 °C 21 °F /  -6.1 °C 30.30in /  1026hPa WSW 5mph /  8km/h 8mph /  12.9km/h 78% 0.00in /  0mm 0 W/m2
18:00 26.8 °F /  -2.9 °C 20.9 °F /  -6.2 °C 30.30in /  1026hPa WSW 5mph /  8km/h 8mph /  12.9km/h 78% 0.00in /  0mm 0 W/m2
18:10 26.9 °F /  -2.8 °C 21.3 °F /  -5.9 °C 30.30in /  1026hPa WSW 5mph /  8km/h 7mph /  11.3km/h 79% 0.00in /  0mm 0 W/m2
18:20 27 °F /  -2.8 °C 21.3 °F /  -5.9 °C 30.30in /  1026hPa WSW 6mph /  9.7km/h 9mph /  14.5km/h 79% 0.00in /  0mm 0 W/m2
18:30 26.8 °F /  -2.9 °C 21.2 °F /  -6 °C 30.30in /  1026hPa WSW 6mph /  9.7km/h 8mph /  12.9km/h 79% 0.00in /  0mm 0 W/m2
18:40 26.8 °F /  -2.9 °C 21.1 °F /  -6.1 °C 30.30in /  1026hPa WSW 5mph /  8km/h 8mph /  12.9km/h 79% 0.00in /  0mm 0 W/m2
18:50 26.8 °F /  -2.9 °C 21.1 °F /  -6.1 °C 30.30in /  1026hPa WSW 5mph /  8km/h 8mph /  12.9km/h 79% 0.00in /  0mm 0 W/m2
19:00 26.8 °F /  -2.9 °C 21.1 °F /  -6.1 °C 30.31in /  1026.3hPa WSW 3mph /  4.8km/h 7mph /  11.3km/h 79% 0.00in /  0mm 0 W/m2
19:10 26.8 °F /  -2.9 °C 21.1 °F /  -6.1 °C 30.31in /  1026.3hPa WSW 3mph /  4.8km/h 7mph /  11.3km/h 79% 0.00in /  0mm 0 W/m2
19:20 26.8 °F /  -2.9 °C 21.1 °F /  -6.1 °C 30.31in /  1026.3hPa WSW 3mph /  4.8km/h 8mph /  12.9km/h 79% 0.00in /  0mm 0 W/m2
19:30 26.8 °F /  -2.9 °C 21.1 °F /  -6.1 °C 30.31in /  1026.3hPa West 3mph /  4.8km/h 6mph /  9.7km/h 79% 0.00in /  0mm 0 W/m2
19:40 26.8 °F /  -2.9 °C 21.1 °F /  -6.1 °C 30.31in /  1026.3hPa West 1mph /  1.6km/h 5mph /  8km/h 79% 0.00in /  0mm 0 W/m2
19:50 26.8 °F /  -2.9 °C 21.1 °F /  -6.1 °C 30.31in /  1026.3hPa WSW 1mph /  1.6km/h 3mph /  4.8km/h 79% 0.00in /  0mm 0 W/m2
20:00 26.8 °F /  -2.9 °C 21.1 °F /  -6.1 °C 30.31in /  1026.3hPa WSW 2mph /  3.2km/h 3mph /  4.8km/h 79% 0.00in /  0mm 0 W/m2
20:10 26.8 °F /  -2.9 °C 21.1 °F /  -6.1 °C 30.31in /  1026.3hPa WSW 1mph /  1.6km/h 2mph /  3.2km/h 79% 0.00in /  0mm 0 W/m2
20:20 26.9 °F /  -2.8 °C 21.3 °F /  -5.9 °C 30.31in /  1026.3hPa West 2mph /  3.2km/h 3mph /  4.8km/h 79% 0.00in /  0mm 0 W/m2
20:30 26.8 °F /  -2.9 °C 21.2 °F /  -6 °C 30.31in /  1026.3hPa WSW 1mph /  1.6km/h 3mph /  4.8km/h 79% 0.00in /  0mm 0 W/m2
20:40 27 °F /  -2.8 °C 21.3 °F /  -5.9 °C 30.31in /  1026.3hPa West 1mph /  1.6km/h 6mph /  9.7km/h 79% 0.00in /  0mm 0 W/m2
20:50 27.1 °F /  -2.7 °C 21.1 °F /  -6.1 °C 30.31in /  1026.3hPa West 2mph /  3.2km/h 5mph /  8km/h 78% 0.00in /  0mm 0 W/m2
21:00 27.1 °F /  -2.7 °C 21.2 °F /  -6 °C 30.31in /  1026.3hPa West 3mph /  4.8km/h 5mph /  8km/h 78% 0.00in /  0mm 0 W/m2
21:10 27.1 °F /  -2.7 °C 21.2 °F /  -6 °C 30.31in /  1026.3hPa West 2mph /  3.2km/h 3mph /  4.8km/h 78% 0.00in /  0mm 0 W/m2
21:20 27.3 °F /  -2.6 °C 21.4 °F /  -5.9 °C 30.31in /  1026.3hPa West 2mph /  3.2km/h 4mph /  6.4km/h 78% 0.00in /  0mm 0 W/m2
21:30 27.3 °F /  -2.6 °C 21.4 °F /  -5.9 °C 30.31in /  1026.3hPa West 3mph /  4.8km/h 6mph /  9.7km/h 78% 0.00in /  0mm 0 W/m2
21:40 27.3 °F /  -2.6 °C 21.4 °F /  -5.9 °C 30.31in /  1026.3hPa WNW 3mph /  4.8km/h 6mph /  9.7km/h 78% 0.00in /  0mm 0 W/m2
21:50 27.3 °F /  -2.6 °C 21.7 °F /  -5.7 °C 30.31in /  1026.3hPa WNW 3mph /  4.8km/h 6mph /  9.7km/h 79% 0.00in /  0mm 0 W/m2
22:00 27.3 °F /  -2.6 °C 21.7 °F /  -5.7 °C 30.31in /  1026.3hPa WNW 3mph /  4.8km/h 6mph /  9.7km/h 79% 0.00in /  0mm 0 W/m2
22:10 27.3 °F /  -2.6 °C 21.7 °F /  -5.7 °C 30.31in /  1026.3hPa WNW 3mph /  4.8km/h 5mph /  8km/h 79% 0.00in /  0mm 0 W/m2
22:20 27.3 °F /  -2.6 °C 21.7 °F /  -5.7 °C 30.31in /  1026.3hPa WNW 2mph /  3.2km/h 4mph /  6.4km/h 79% 0.00in /  0mm 0 W/m2
22:30 27.2 °F /  -2.7 °C 21.5 °F /  -5.8 °C 30.32in /  1026.6hPa West 2mph /  3.2km/h 3mph /  4.8km/h 79% 0.00in /  0mm 0 W/m2
22:40 27.1 °F /  -2.7 °C 21.5 °F /  -5.8 °C 30.32in /  1026.6hPa Calm   2mph /  3.2km/h 79% 0.00in /  0mm 0 W/m2
22:50 27.1 °F /  -2.7 °C 21.8 °F /  -5.7 °C 30.32in /  1026.6hPa Calm   2mph /  3.2km/h 80% 0.00in /  0mm 0 W/m2
23:00 27.1 °F /  -2.7 °C 21.8 °F /  -5.7 °C 30.32in /  1026.6hPa Calm   2mph /  3.2km/h 80% 0.00in /  0mm 0 W/m2
23:10 27.1 °F /  -2.7 °C 21.8 °F /  -5.7 °C 30.32in /  1026.6hPa NW 2mph /  3.2km/h 3mph /  4.8km/h 80% 0.00in /  0mm 0 W/m2
23:20 27.1 °F /  -2.7 °C 21.8 °F /  -5.7 °C 30.32in /  1026.6hPa NW 2mph /  3.2km/h 3mph /  4.8km/h 80% 0.00in /  0mm 0 W/m2
23:30 27.1 °F /  -2.7 °C 21.8 °F /  -5.7 °C 30.32in /  1026.6hPa North 3mph /  4.8km/h 5mph /  8km/h 80% 0.00in /  0mm 0 W/m2
23:40 27.1 °F /  -2.7 °C 22.7 °F /  -5.2 °C 30.32in /  1026.6hPa North 3mph /  4.8km/h 7mph /  11.3km/h 83% 0.00in /  0mm 0 W/m2
23:50 27 °F /  -2.8 °C 23.3 °F /  -4.8 °C 30.33in /  1027hPa North 1mph /  1.6km/h 6mph /  9.7km/h 86% 0.00in /  0mm 0 W/m2
Knjazevac, Serbia
Compliments of Weather Underground - 4 mb